Time;durP1;ratioP1;P1;durP2;ratioP2;P2;SDS_P1;SDS_P2;PMS_P1;PMS_P2;Temp;Humidity;BMP_temperature;BMP_pressure;BME280_temperature;BME280_humidity;BME280_pressure;Samples;Min_cycle;Max_cycle;Signal;HPM_P1;HPM_P2
2022/05/29 00:00:32;;;;;;;;;;;21.30;53.90;;;;;;467803;254;1297;-39
2022/05/29 00:02:33;;;;;;;;;;;21.30;53.90;;;;;;465713;255;1235;-39
2022/05/29 00:04:34;;;;;;;;;;;21.40;54.00;;;;;;467617;255;1183;-39
2022/05/29 00:06:36;;;;;;;;;;;21.40;53.70;;;;;;465833;255;1374;-39
2022/05/29 00:08:37;;;;;;;;;;;21.40;53.80;;;;;;467863;254;1342;-39
2022/05/29 00:10:38;;;;;;;;;;;21.30;53.80;;;;;;466049;255;1164;-39
2022/05/29 00:12:40;;;;;;;;;;;21.30;53.80;;;;;;467677;255;2137;-39
2022/05/29 00:14:42;;;;;;;;;;;21.30;53.80;;;;;;466121;255;1223;-39
2022/05/29 00:16:43;;;;;;;;;;;21.30;53.80;;;;;;467757;254;1206;-39
2022/05/29 00:18:45;;;;;;;;;;;21.30;53.80;;;;;;466220;255;1223;-39
2022/05/29 00:20:46;;;;;;;;;;;21.30;53.80;;;;;;467698;254;1384;-39
2022/05/29 00:22:47;;;;;;;;;;;21.30;53.90;;;;;;465845;255;1307;-39
2022/05/29 00:24:48;;;;;;;;;;;21.30;53.80;;;;;;467694;255;1239;-39
2022/05/29 00:26:50;;;;;;;;;;;21.30;53.70;;;;;;466240;255;1206;-39
2022/05/29 00:28:51;;;;;;;;;;;21.40;53.90;;;;;;467770;254;1253;-39
2022/05/29 00:30:52;;;;;;;;;;;21.30;53.80;;;;;;465853;255;1312;-39
2022/05/29 00:32:54;;;;;;;;;;;21.30;53.90;;;;;;468035;254;2204;-39
2022/05/29 00:34:55;;;;;;;;;;;21.30;53.90;;;;;;466099;255;1258;-39
2022/05/29 00:36:58;;;;;;;;;;;21.30;53.90;;;;;;467642;255;1164;-39
2022/05/29 00:38:58;;;;;;;;;;;21.40;53.80;;;;;;466185;256;2314;-39
2022/05/29 00:41:00;;;;;;;;;;;21.40;53.70;;;;;;467622;255;1239;-39
2022/05/29 00:43:01;;;;;;;;;;;21.40;53.80;;;;;;466207;255;1296;-39
2022/05/29 00:45:02;;;;;;;;;;;21.30;53.80;;;;;;467672;255;1215;-39
2022/05/29 00:47:04;;;;;;;;;;;21.30;53.80;;;;;;466183;255;1556;-39
2022/05/29 00:49:05;;;;;;;;;;;21.30;53.90;;;;;;468001;254;1286;-39
2022/05/29 00:51:06;;;;;;;;;;;21.30;53.70;;;;;;465795;255;1226;-39
2022/05/29 00:53:08;;;;;;;;;;;21.30;53.80;;;;;;468019;254;2121;-39
2022/05/29 00:55:09;;;;;;;;;;;21.30;53.80;;;;;;466135;255;1338;-39
2022/05/29 00:57:11;;;;;;;;;;;21.40;53.70;;;;;;467611;255;1240;-39
2022/05/29 00:59:12;;;;;;;;;;;21.40;53.70;;;;;;465812;255;1245;-39
2022/05/29 01:01:14;;;;;;;;;;;21.30;53.80;;;;;;467986;254;1192;-39
2022/05/29 01:03:15;;;;;;;;;;;21.40;53.70;;;;;;466128;255;1262;-39
2022/05/29 01:05:16;;;;;;;;;;;21.30;53.80;;;;;;467627;255;1318;-39
2022/05/29 01:07:18;;;;;;;;;;;21.40;53.80;;;;;;465896;255;1247;-39
2022/05/29 01:09:19;;;;;;;;;;;21.30;53.70;;;;;;467713;254;1288;-39
2022/05/29 01:11:20;;;;;;;;;;;21.40;53.70;;;;;;465828;255;1332;-39
2022/05/29 01:13:21;;;;;;;;;;;21.40;53.70;;;;;;467722;254;2207;-39
2022/05/29 01:15:23;;;;;;;;;;;21.40;53.70;;;;;;466077;255;1331;-39
2022/05/29 01:17:24;;;;;;;;;;;21.40;53.70;;;;;;468018;254;1383;-39
2022/05/29 01:19:26;;;;;;;;;;;21.40;53.70;;;;;;465861;255;1284;-39
2022/05/29 01:21:27;;;;;;;;;;;21.30;53.80;;;;;;467625;255;1185;-39
2022/05/29 01:23:28;;;;;;;;;;;21.30;53.80;;;;;;465794;255;1249;-39
2022/05/29 01:25:30;;;;;;;;;;;21.30;53.90;;;;;;467591;254;1229;-39
2022/05/29 01:27:31;;;;;;;;;;;21.30;53.70;;;;;;465983;255;1258;-39
2022/05/29 01:29:32;;;;;;;;;;;21.40;53.70;;;;;;467609;255;1244;-39
2022/05/29 01:31:34;;;;;;;;;;;21.40;53.70;;;;;;465797;255;1228;-39
2022/05/29 01:33:35;;;;;;;;;;;21.40;53.60;;;;;;467834;254;2138;-39
2022/05/29 01:35:36;;;;;;;;;;;21.40;53.60;;;;;;465933;255;1227;-39
2022/05/29 01:37:38;;;;;;;;;;;21.40;53.70;;;;;;467740;254;1148;-39
2022/05/29 01:39:39;;;;;;;;;;;21.40;53.70;;;;;;466256;255;1296;-39
2022/05/29 01:41:40;;;;;;;;;;;21.40;53.70;;;;;;468049;254;1360;-39
2022/05/29 01:43:42;;;;;;;;;;;21.40;53.70;;;;;;466231;255;1535;-39
2022/05/29 01:45:53;;;;;;;;;;;21.40;53.70;;;;;;468065;254;1180;-39
2022/05/29 01:47:55;;;;;;;;;;;21.40;53.60;;;;;;466175;255;1316;-39
2022/05/29 01:49:56;;;;;;;;;;;21.30;53.80;;;;;;468138;254;1165;-39
2022/05/29 01:51:57;;;;;;;;;;;21.30;53.80;;;;;;465813;255;1621;-39
2022/05/29 01:53:59;;;;;;;;;;;21.30;53.60;;;;;;467944;254;2133;-39
2022/05/29 01:56:00;;;;;;;;;;;21.30;53.80;;;;;;466020;255;1249;-39
2022/05/29 01:58:02;;;;;;;;;;;21.40;53.70;;;;;;467650;254;1209;-39
2022/05/29 02:00:03;;;;;;;;;;;21.30;53.70;;;;;;465854;255;1240;-39
2022/05/29 02:02:04;;;;;;;;;;;21.30;53.70;;;;;;467628;255;1561;-39
2022/05/29 02:04:06;;;;;;;;;;;21.30;53.60;;;;;;466175;255;1191;-39
2022/05/29 02:06:07;;;;;;;;;;;21.40;53.70;;;;;;467521;255;1185;-39
2022/05/29 02:08:08;;;;;;;;;;;21.40;53.70;;;;;;465706;255;1339;-39
2022/05/29 02:10:10;;;;;;;;;;;21.40;53.70;;;;;;468159;254;1214;-39
2022/05/29 02:12:11;;;;;;;;;;;21.30;53.70;;;;;;466185;255;1440;-39
2022/05/29 02:14:12;;;;;;;;;;;21.30;53.70;;;;;;468068;254;2134;-39
2022/05/29 02:16:13;;;;;;;;;;;21.40;53.70;;;;;;465953;255;1254;-39
2022/05/29 02:18:15;;;;;;;;;;;21.40;53.70;;;;;;467671;255;1278;-39
2022/05/29 02:20:16;;;;;;;;;;;21.40;53.70;;;;;;465852;255;1295;-39
2022/05/29 02:22:17;;;;;;;;;;;21.30;53.70;;;;;;467604;254;1485;-39
2022/05/29 02:24:19;;;;;;;;;;;21.40;53.70;;;;;;465949;255;1517;-39
2022/05/29 02:26:20;;;;;;;;;;;21.40;53.60;;;;;;467635;254;1251;-39
2022/05/29 02:28:21;;;;;;;;;;;21.40;53.60;;;;;;465813;255;1292;-39
2022/05/29 02:30:23;;;;;;;;;;;21.40;53.60;;;;;;468067;254;2102;-39
2022/05/29 02:32:24;;;;;;;;;;;21.40;53.60;;;;;;466207;255;1579;-39
2022/05/29 02:34:25;;;;;;;;;;;21.40;53.60;;;;;;467680;255;2189;-39
2022/05/29 02:36:29;;;;;;;;;;;21.40;53.60;;;;;;466010;255;1319;-39
2022/05/29 02:38:28;;;;;;;;;;;21.40;53.60;;;;;;467810;254;2144;-39
2022/05/29 02:40:29;;;;;;;;;;;21.30;53.60;;;;;;465973;255;1228;-39
2022/05/29 02:42:31;;;;;;;;;;;21.40;53.70;;;;;;468063;254;1284;-39
2022/05/29 02:44:32;;;;;;;;;;;21.40;53.60;;;;;;466241;255;1222;-39
2022/05/29 02:46:33;;;;;;;;;;;21.40;53.70;;;;;;468091;254;1159;-39
2022/05/29 02:48:34;;;;;;;;;;;21.40;53.70;;;;;;465786;255;1228;-39
2022/05/29 02:50:36;;;;;;;;;;;21.30;53.60;;;;;;467562;255;1351;-39
2022/05/29 02:52:37;;;;;;;;;;;21.30;53.60;;;;;;465796;255;1216;-39
2022/05/29 02:54:39;;;;;;;;;;;21.30;53.70;;;;;;467834;254;2153;-39
2022/05/29 02:56:40;;;;;;;;;;;21.30;53.60;;;;;;465873;255;1202;-39
2022/05/29 02:58:41;;;;;;;;;;;21.40;53.70;;;;;;468076;254;1296;-39
2022/05/29 03:00:42;;;;;;;;;;;21.40;53.70;;;;;;466034;255;1277;-39
2022/05/29 03:02:44;;;;;;;;;;;21.30;53.60;;;;;;467617;255;1237;-39
2022/05/29 03:04:45;;;;;;;;;;;21.30;53.60;;;;;;466172;255;1219;-39
2022/05/29 03:06:46;;;;;;;;;;;21.40;53.70;;;;;;467569;255;1525;-39
2022/05/29 03:08:48;;;;;;;;;;;21.30;53.70;;;;;;465972;255;1293;-39
2022/05/29 03:10:49;;;;;;;;;;;21.30;53.60;;;;;;467719;255;1265;-39
2022/05/29 03:12:50;;;;;;;;;;;21.30;53.60;;;;;;466250;255;1285;-39
2022/05/29 03:14:52;;;;;;;;;;;21.30;53.60;;;;;;467848;254;2224;-39
2022/05/29 03:16:53;;;;;;;;;;;21.30;53.60;;;;;;465997;255;1155;-39
2022/05/29 03:18:54;;;;;;;;;;;21.40;53.60;;;;;;467986;254;1232;-39
2022/05/29 03:20:56;;;;;;;;;;;21.30;53.60;;;;;;465852;255;1232;-39
2022/05/29 03:22:57;;;;;;;;;;;21.30;53.60;;;;;;467680;254;1302;-39
2022/05/29 03:24:58;;;;;;;;;;;21.40;53.50;;;;;;465849;255;1259;-39
2022/05/29 03:27:00;;;;;;;;;;;21.40;53.50;;;;;;467677;255;1293;-39
2022/05/29 03:29:01;;;;;;;;;;;21.40;53.50;;;;;;465853;255;1266;-39
2022/05/29 03:31:03;;;;;;;;;;;21.40;53.50;;;;;;468077;254;1260;-39
2022/05/29 03:33:06;;;;;;;;;;;21.40;53.60;;;;;;465845;255;1314;-39
2022/05/29 03:35:06;;;;;;;;;;;21.40;53.60;;;;;;467982;255;2467;-39
2022/05/29 03:37:07;;;;;;;;;;;21.40;53.60;;;;;;465739;255;1287;-39
2022/05/29 03:39:08;;;;;;;;;;;21.40;53.70;;;;;;468074;254;1242;-39
2022/05/29 03:41:10;;;;;;;;;;;21.40;53.50;;;;;;466179;255;1231;-39
2022/05/29 03:43:11;;;;;;;;;;;21.40;53.50;;;;;;468090;254;1215;-39
2022/05/29 03:45:12;;;;;;;;;;;21.40;53.40;;;;;;465986;255;1219;-39
2022/05/29 03:47:14;;;;;;;;;;;21.40;53.50;;;;;;468084;254;1541;-39
2022/05/29 03:49:15;;;;;;;;;;;21.40;53.50;;;;;;466266;255;1143;-39
2022/05/29 03:51:16;;;;;;;;;;;21.40;53.60;;;;;;467790;254;1188;-39
2022/05/29 03:53:18;;;;;;;;;;;21.30;53.50;;;;;;465872;255;1354;-39
2022/05/29 03:55:20;;;;;;;;;;;21.30;53.60;;;;;;468105;254;2137;-39
2022/05/29 03:57:21;;;;;;;;;;;21.40;53.60;;;;;;465988;255;1382;-39
2022/05/29 03:59:22;;;;;;;;;;;21.40;53.70;;;;;;467637;255;1379;-39
2022/05/29 04:01:24;;;;;;;;;;;21.40;53.60;;;;;;466207;255;1694;-39
2022/05/29 04:03:25;;;;;;;;;;;21.30;53.60;;;;;;468028;254;1229;-39
2022/05/29 04:05:26;;;;;;;;;;;21.30;53.60;;;;;;465802;255;1299;-39
2022/05/29 04:12:08;;;;;;;;;;;21.30;53.50;;;;;;467763;254;1915;-39
2022/05/29 04:14:09;;;;;;;;;;;21.30;53.50;;;;;;465829;255;2123;-39
2022/05/29 04:16:10;;;;;;;;;;;21.40;53.50;;;;;;468061;254;1269;-39
2022/05/29 04:18:12;;;;;;;;;;;21.40;53.50;;;;;;465823;255;1248;-39
2022/05/29 04:20:13;;;;;;;;;;;21.40;53.50;;;;;;467753;254;1553;-39
2022/05/29 04:22:14;;;;;;;;;;;21.40;53.50;;;;;;465758;255;1467;-39
2022/05/29 04:24:16;;;;;;;;;;;21.40;53.50;;;;;;468047;254;1335;-39
2022/05/29 04:26:17;;;;;;;;;;;21.40;53.50;;;;;;465789;255;1233;-39
2022/05/29 04:28:18;;;;;;;;;;;21.40;53.40;;;;;;468105;254;1192;-39
2022/05/29 04:30:20;;;;;;;;;;;21.40;53.50;;;;;;466153;255;1336;-39
2022/05/29 04:34:40;;;;;;;;;;;21.40;53.50;;;;;;466281;255;2138;-39
2022/05/29 04:36:42;;;;;;;;;;;21.40;53.50;;;;;;467600;255;1198;-39
2022/05/29 04:38:43;;;;;;;;;;;21.30;53.60;;;;;;465987;255;1219;-39
2022/05/29 04:40:44;;;;;;;;;;;21.30;53.60;;;;;;468136;254;1026;-39
2022/05/29 04:42:46;;;;;;;;;;;21.30;53.60;;;;;;465927;255;1213;-39
2022/05/29 04:44:47;;;;;;;;;;;21.30;53.50;;;;;;468076;254;1188;-39
2022/05/29 04:46:48;;;;;;;;;;;21.30;53.50;;;;;;465768;255;1418;-39
2022/05/29 04:48:49;;;;;;;;;;;21.30;53.50;;;;;;467676;255;1231;-39
2022/05/29 04:50:51;;;;;;;;;;;21.40;53.50;;;;;;465819;255;1248;-39
2022/05/29 04:52:52;;;;;;;;;;;21.40;53.50;;;;;;467701;254;1303;-39
2022/05/29 04:54:53;;;;;;;;;;;21.40;53.50;;;;;;465948;255;2142;-39
2022/05/29 04:56:55;;;;;;;;;;;21.30;53.50;;;;;;468074;254;1251;-39
2022/05/29 04:58:56;;;;;;;;;;;21.40;53.50;;;;;;466271;255;1267;-39
2022/05/29 05:00:58;;;;;;;;;;;21.30;53.50;;;;;;468063;254;1307;-39
2022/05/29 05:02:59;;;;;;;;;;;21.30;53.60;;;;;;466163;255;1188;-39
2022/05/29 05:05:00;;;;;;;;;;;21.30;53.60;;;;;;467653;255;1396;-39
2022/05/29 05:07:01;;;;;;;;;;;21.30;53.60;;;;;;466103;255;1339;-39
2022/05/29 05:09:03;;;;;;;;;;;21.30;53.60;;;;;;467642;255;1188;-39
2022/05/29 05:11:04;;;;;;;;;;;21.40;53.60;;;;;;466236;255;1356;-39
2022/05/29 05:13:06;;;;;;;;;;;21.30;53.50;;;;;;467645;255;1277;-39
2022/05/29 05:15:07;;;;;;;;;;;21.30;53.60;;;;;;466205;255;2146;-39
2022/05/29 05:17:08;;;;;;;;;;;21.30;53.60;;;;;;468062;254;1215;-39
2022/05/29 05:19:09;;;;;;;;;;;21.30;53.50;;;;;;465868;255;1277;-39
2022/05/29 05:21:11;;;;;;;;;;;21.30;53.60;;;;;;467992;254;1203;-39
2022/05/29 05:23:12;;;;;;;;;;;21.30;53.60;;;;;;466287;255;1261;-39
2022/05/29 05:25:14;;;;;;;;;;;21.30;53.60;;;;;;468137;254;1377;-39
2022/05/29 05:27:15;;;;;;;;;;;21.40;53.70;;;;;;465845;255;1424;-39
2022/05/29 05:29:16;;;;;;;;;;;21.30;53.60;;;;;;467743;255;1502;-39
2022/05/29 05:31:18;;;;;;;;;;;21.40;53.60;;;;;;466132;255;1598;-39
2022/05/29 05:33:19;;;;;;;;;;;21.40;53.50;;;;;;467721;255;1225;-39
2022/05/29 05:35:20;;;;;;;;;;;21.40;53.50;;;;;;466162;255;2205;-39
2022/05/29 05:37:22;;;;;;;;;;;21.30;53.50;;;;;;467641;255;1314;-39
2022/05/29 05:39:23;;;;;;;;;;;21.30;53.50;;;;;;465798;255;1283;-39
2022/05/29 05:41:24;;;;;;;;;;;21.40;53.50;;;;;;467797;254;1261;-39
2022/05/29 05:43:26;;;;;;;;;;;21.30;53.50;;;;;;466204;255;1285;-39
2022/05/29 05:45:27;;;;;;;;;;;21.30;53.50;;;;;;467737;255;1234;-39
2022/05/29 05:47:28;;;;;;;;;;;21.30;53.50;;;;;;466198;255;1382;-39
2022/05/29 05:49:30;;;;;;;;;;;21.30;53.40;;;;;;468146;254;1347;-39
2022/05/29 05:51:31;;;;;;;;;;;21.40;53.40;;;;;;465859;255;1206;-39
2022/05/29 05:53:32;;;;;;;;;;;21.40;53.40;;;;;;467728;255;1258;-39
2022/05/29 05:55:36;;;;;;;;;;;21.30;53.50;;;;;;465902;255;2190;-39
2022/05/29 05:57:35;;;;;;;;;;;21.30;53.50;;;;;;467845;255;2226;-39
2022/05/29 05:59:36;;;;;;;;;;;21.40;53.40;;;;;;466129;255;1431;-39
2022/05/29 06:01:38;;;;;;;;;;;21.30;53.40;;;;;;468111;254;1181;-39
2022/05/29 06:03:39;;;;;;;;;;;21.30;53.50;;;;;;466016;255;1251;-39
2022/05/29 06:05:40;;;;;;;;;;;21.30;53.50;;;;;;467971;254;1283;-39
2022/05/29 06:07:42;;;;;;;;;;;21.30;53.50;;;;;;465817;255;1528;-39
2022/05/29 06:09:43;;;;;;;;;;;21.30;53.50;;;;;;467877;254;1307;-39
2022/05/29 06:11:44;;;;;;;;;;;21.30;53.40;;;;;;466102;255;1231;-39
2022/05/29 06:13:45;;;;;;;;;;;21.30;53.60;;;;;;468020;254;1206;-39
2022/05/29 06:15:47;;;;;;;;;;;21.30;53.50;;;;;;466194;255;2216;-39
2022/05/29 06:17:48;;;;;;;;;;;21.40;53.50;;;;;;467657;255;1233;-39
2022/05/29 06:19:49;;;;;;;;;;;21.30;53.50;;;;;;466222;255;1235;-39
2022/05/29 06:21:51;;;;;;;;;;;21.30;53.50;;;;;;467795;254;1624;-39
2022/05/29 06:23:52;;;;;;;;;;;21.30;53.50;;;;;;465864;255;1159;-39
2022/05/29 06:25:53;;;;;;;;;;;21.40;53.40;;;;;;467697;255;1360;-39
2022/05/29 06:27:55;;;;;;;;;;;21.30;53.40;;;;;;466237;255;1743;-39
2022/05/29 06:29:57;;;;;;;;;;;21.30;53.40;;;;;;467871;254;1281;-39
2022/05/29 06:31:57;;;;;;;;;;;21.40;53.50;;;;;;465882;255;1264;-39
2022/05/29 06:33:59;;;;;;;;;;;21.30;53.40;;;;;;468089;254;1219;-39
2022/05/29 06:36:00;;;;;;;;;;;21.30;53.30;;;;;;466193;255;2123;-39
2022/05/29 06:38:01;;;;;;;;;;;21.40;53.40;;;;;;468063;254;1210;-39
2022/05/29 06:40:03;;;;;;;;;;;21.40;53.40;;;;;;466043;255;1246;-39
2022/05/29 06:42:04;;;;;;;;;;;21.40;53.40;;;;;;467662;254;1202;-39
2022/05/29 06:44:05;;;;;;;;;;;21.30;53.50;;;;;;465839;255;1261;-39
2022/05/29 06:46:07;;;;;;;;;;;21.30;53.40;;;;;;468075;254;1256;-39
2022/05/29 06:48:08;;;;;;;;;;;21.30;53.50;;;;;;466241;255;1192;-39
2022/05/29 06:50:09;;;;;;;;;;;21.30;53.50;;;;;;468028;254;1426;-39
2022/05/29 06:52:11;;;;;;;;;;;21.30;53.40;;;;;;466113;255;1228;-39
2022/05/29 06:54:12;;;;;;;;;;;21.30;53.50;;;;;;467628;255;1258;-39
2022/05/29 06:56:13;;;;;;;;;;;21.30;53.50;;;;;;465770;255;2182;-39
2022/05/29 06:58:15;;;;;;;;;;;21.30;53.60;;;;;;467681;255;1243;-39
2022/05/29 07:07:14;;;;;;;;;;;21.30;53.50;;;;;;467936;254;1282;-39
2022/05/29 07:09:17;;;;;;;;;;;21.30;53.50;;;;;;466002;255;1274;-39
2022/05/29 07:11:17;;;;;;;;;;;21.30;53.40;;;;;;467526;255;2449;-39
2022/05/29 07:13:18;;;;;;;;;;;21.30;53.40;;;;;;465966;255;1230;-39
2022/05/29 07:15:20;;;;;;;;;;;21.30;53.50;;;;;;467624;255;2208;-39
2022/05/29 07:17:22;;;;;;;;;;;21.30;53.50;;;;;;465752;255;1226;-39
2022/05/29 07:19:25;;;;;;;;;;;21.30;53.50;;;;;;467630;255;2209;-39
2022/05/29 07:21:24;;;;;;;;;;;21.30;53.50;;;;;;465719;256;2063;-39
2022/05/29 07:23:25;;;;;;;;;;;21.30;53.40;;;;;;468067;254;1239;-39
2022/05/29 07:25:26;;;;;;;;;;;21.30;53.50;;;;;;465817;255;1391;-39
2022/05/29 07:27:28;;;;;;;;;;;21.30;53.40;;;;;;468045;254;1243;-39
2022/05/29 07:29:29;;;;;;;;;;;21.30;53.30;;;;;;466233;255;1221;-39
2022/05/29 07:31:30;;;;;;;;;;;21.30;53.40;;;;;;467629;255;1522;-39
2022/05/29 07:33:32;;;;;;;;;;;21.30;53.50;;;;;;465853;255;1220;-39
2022/05/29 07:35:33;;;;;;;;;;;21.30;53.50;;;;;;467635;255;2209;-39
2022/05/29 07:37:34;;;;;;;;;;;21.30;53.50;;;;;;466023;255;1158;-39
2022/05/29 07:39:36;;;;;;;;;;;21.30;53.40;;;;;;467641;255;1367;-39
2022/05/29 07:43:56;;;;;;;;;;;21.30;53.40;;;;;;467666;254;1280;-39
2022/05/29 07:45:58;;;;;;;;;;;21.30;53.40;;;;;;466083;255;1172;-39
2022/05/29 07:47:59;;;;;;;;;;;21.30;53.40;;;;;;467567;255;1531;-39
2022/05/29 07:50:00;;;;;;;;;;;21.30;53.40;;;;;;465774;255;1262;-39
2022/05/29 07:52:01;;;;;;;;;;;21.30;53.40;;;;;;467615;255;1257;-39
2022/05/29 07:54:03;;;;;;;;;;;21.30;53.60;;;;;;465835;255;1150;-39
2022/05/29 07:56:04;;;;;;;;;;;21.30;53.60;;;;;;467853;254;2133;-39
2022/05/29 07:58:06;;;;;;;;;;;21.30;53.50;;;;;;465975;255;1259;-39
2022/05/29 08:00:07;;;;;;;;;;;21.30;53.50;;;;;;467949;254;1370;-39
2022/05/29 08:02:08;;;;;;;;;;;21.30;53.50;;;;;;465720;255;1187;-39
2022/05/29 08:04:10;;;;;;;;;;;21.30;53.60;;;;;;467609;255;1127;-39
2022/05/29 08:06:11;;;;;;;;;;;21.30;53.60;;;;;;465800;255;1248;-39
2022/05/29 08:08:13;;;;;;;;;;;21.20;53.50;;;;;;468125;254;1073;-39
2022/05/29 08:10:14;;;;;;;;;;;21.20;53.60;;;;;;466234;255;1309;-39
2022/05/29 08:12:15;;;;;;;;;;;21.30;53.60;;;;;;468939;254;1067;-39
2022/05/29 08:14:16;;;;;;;;;;;21.30;53.60;;;;;;467136;254;1200;-39
2022/05/29 08:16:18;;;;;;;;;;;21.30;53.50;;;;;;468074;254;2142;-39
2022/05/29 08:18:19;;;;;;;;;;;21.30;53.60;;;;;;466133;256;2419;-39
2022/05/29 08:20:20;;;;;;;;;;;21.30;53.60;;;;;;467685;254;1072;-39
2022/05/29 08:22:21;;;;;;;;;;;21.30;53.50;;;;;;465900;255;1324;-39
2022/05/29 08:31:21;;;;;;;;;;;21.20;53.60;;;;;;465801;255;1330;-39
2022/05/29 08:33:22;;;;;;;;;;;21.30;53.50;;;;;;467670;255;1280;-39
2022/05/29 08:35:23;;;;;;;;;;;21.30;53.60;;;;;;465981;255;2142;-39
2022/05/29 08:37:25;;;;;;;;;;;21.30;53.50;;;;;;467743;254;1194;-39
2022/05/29 08:39:26;;;;;;;;;;;21.30;53.40;;;;;;465967;255;1537;-39
2022/05/29 08:41:27;;;;;;;;;;;21.30;53.40;;;;;;467637;255;1204;-39
2022/05/29 08:43:29;;;;;;;;;;;21.30;53.50;;;;;;466048;255;1230;-39
2022/05/29 08:45:30;;;;;;;;;;;21.30;53.60;;;;;;468110;254;1289;-39
2022/05/29 08:47:31;;;;;;;;;;;21.20;53.60;;;;;;465882;255;1197;-39
2022/05/29 08:49:33;;;;;;;;;;;21.20;53.50;;;;;;468039;254;1286;-39
2022/05/29 08:51:34;;;;;;;;;;;21.20;53.50;;;;;;466178;254;1427;-39
2022/05/29 08:53:35;;;;;;;;;;;21.30;53.50;;;;;;467800;254;1296;-39
2022/05/29 08:55:37;;;;;;;;;;;21.30;53.50;;;;;;465789;255;2153;-39
2022/05/29 08:57:38;;;;;;;;;;;21.30;53.50;;;;;;467609;255;1267;-39
2022/05/29 08:59:39;;;;;;;;;;;21.20;53.60;;;;;;466226;255;1240;-39
2022/05/29 09:01:41;;;;;;;;;;;21.30;53.60;;;;;;467863;254;1328;-39
2022/05/29 09:03:42;;;;;;;;;;;21.30;53.50;;;;;;465906;255;1275;-39
2022/05/29 09:05:43;;;;;;;;;;;21.20;53.50;;;;;;467996;254;1283;-39
2022/05/29 09:07:44;;;;;;;;;;;21.30;53.60;;;;;;465739;255;1300;-39
2022/05/29 09:09:46;;;;;;;;;;;21.30;53.60;;;;;;468018;254;1248;-39
2022/05/29 09:11:48;;;;;;;;;;;21.30;53.60;;;;;;465718;255;1507;-39
2022/05/29 09:13:49;;;;;;;;;;;21.30;53.60;;;;;;467873;254;1193;-39
2022/05/29 09:15:50;;;;;;;;;;;21.30;53.50;;;;;;465927;255;2138;-39
2022/05/29 09:17:52;;;;;;;;;;;21.20;53.50;;;;;;467674;255;1228;-39
2022/05/29 09:19:53;;;;;;;;;;;21.30;53.50;;;;;;466243;255;1072;-39
2022/05/29 09:21:54;;;;;;;;;;;21.30;53.50;;;;;;467736;254;1241;-39
2022/05/29 09:23:56;;;;;;;;;;;21.30;53.60;;;;;;466235;255;1042;-39
2022/05/29 09:25:57;;;;;;;;;;;21.30;53.50;;;;;;468030;254;1200;-39
2022/05/29 09:27:58;;;;;;;;;;;21.30;53.60;;;;;;465805;255;1132;-39
2022/05/29 09:30:00;;;;;;;;;;;21.30;53.50;;;;;;468142;254;1091;-39
2022/05/29 09:32:01;;;;;;;;;;;21.30;53.50;;;;;;466116;255;1367;-39
2022/05/29 09:34:03;;;;;;;;;;;21.30;53.40;;;;;;467703;255;2328;-39
2022/05/29 09:36:04;;;;;;;;;;;21.30;53.50;;;;;;466160;255;2135;-39
2022/05/29 09:38:06;;;;;;;;;;;21.30;53.40;;;;;;467647;255;1165;-39
2022/05/29 09:40:07;;;;;;;;;;;21.30;53.40;;;;;;465970;255;1161;-39
2022/05/29 09:42:08;;;;;;;;;;;21.30;53.40;;;;;;467854;254;1303;-39
2022/05/29 09:44:10;;;;;;;;;;;21.30;53.40;;;;;;466114;255;1340;-39
2022/05/29 09:46:11;;;;;;;;;;;21.30;53.40;;;;;;467875;254;1306;-39
2022/05/29 09:50:32;;;;;;;;;;;21.20;53.60;;;;;;467821;254;1133;-39
2022/05/29 09:52:33;;;;;;;;;;;21.30;53.50;;;;;;466157;255;1616;-39
2022/05/29 09:54:34;;;;;;;;;;;21.30;53.60;;;;;;468012;254;1192;-39
2022/05/29 09:56:36;;;;;;;;;;;21.20;53.50;;;;;;465747;255;2143;-39
2022/05/29 09:58:37;;;;;;;;;;;21.20;53.60;;;;;;467667;254;1205;-39
2022/05/29 10:00:39;;;;;;;;;;;21.20;53.50;;;;;;466208;255;1158;-39
2022/05/29 10:02:40;;;;;;;;;;;21.20;53.50;;;;;;467582;254;1192;-39
2022/05/29 10:04:42;;;;;;;;;;;21.20;53.60;;;;;;465837;255;1295;-39
2022/05/29 10:06:42;;;;;;;;;;;21.20;53.50;;;;;;467679;254;1289;-39
2022/05/29 10:08:44;;;;;;;;;;;21.20;53.50;;;;;;466202;255;1262;-39
2022/05/29 10:10:45;;;;;;;;;;;21.20;53.50;;;;;;468079;254;1358;-39
2022/05/29 10:12:46;;;;;;;;;;;21.20;53.50;;;;;;465768;255;1230;-39
2022/05/29 10:14:48;;;;;;;;;;;21.30;53.60;;;;;;467847;254;1368;-39
2022/05/29 10:16:49;;;;;;;;;;;21.20;53.60;;;;;;466139;255;2135;-39
2022/05/29 10:18:50;;;;;;;;;;;21.30;53.50;;;;;;467662;254;1277;-39
2022/05/29 10:20:52;;;;;;;;;;;21.20;53.50;;;;;;465746;255;1314;-39
2022/05/29 10:22:54;;;;;;;;;;;21.30;53.40;;;;;;467593;255;1233;-39
2022/05/29 10:24:55;;;;;;;;;;;21.30;53.40;;;;;;466030;255;1332;-39
2022/05/29 10:26:56;;;;;;;;;;;21.20;53.40;;;;;;468023;254;1297;-39
2022/05/29 10:28:57;;;;;;;;;;;21.20;53.40;;;;;;465781;255;1324;-39
2022/05/29 10:30:59;;;;;;;;;;;21.20;53.60;;;;;;467564;255;1322;-39
2022/05/29 10:33:00;;;;;;;;;;;21.20;53.60;;;;;;465699;255;1270;-39
2022/05/29 10:35:01;;;;;;;;;;;21.30;53.50;;;;;;467637;254;1281;-39
2022/05/29 10:37:04;;;;;;;;;;;21.20;53.40;;;;;;465853;255;2146;-39
2022/05/29 10:39:04;;;;;;;;;;;21.30;53.50;;;;;;468056;254;2205;-39
2022/05/29 10:41:05;;;;;;;;;;;21.30;53.50;;;;;;466159;255;1362;-39
2022/05/29 10:43:06;;;;;;;;;;;21.20;53.50;;;;;;467637;255;1352;-39
2022/05/29 10:45:08;;;;;;;;;;;21.20;53.50;;;;;;465911;255;1348;-39
2022/05/29 10:47:09;;;;;;;;;;;21.30;53.40;;;;;;467535;255;1286;-39
2022/05/29 10:49:13;;;;;;;;;;;21.20;53.50;;;;;;466137;255;1543;-39
2022/05/29 10:51:12;;;;;;;;;;;21.30;53.50;;;;;;467659;255;2212;-39
2022/05/29 10:53:13;;;;;;;;;;;21.30;53.50;;;;;;466124;255;1079;-39
2022/05/29 10:55:14;;;;;;;;;;;21.30;53.50;;;;;;467637;255;1287;-39
2022/05/29 10:57:16;;;;;;;;;;;21.30;53.50;;;;;;465764;255;2139;-39
2022/05/29 10:59:17;;;;;;;;;;;21.30;53.40;;;;;;467626;254;1360;-39
2022/05/29 11:03:38;;;;;;;;;;;21.30;53.30;;;;;;467746;254;1293;-39
2022/05/29 11:05:39;;;;;;;;;;;21.30;53.30;;;;;;465801;255;1279;-39
2022/05/29 11:07:41;;;;;;;;;;;21.30;53.40;;;;;;467962;254;1200;-39
2022/05/29 11:09:42;;;;;;;;;;;21.30;53.40;;;;;;466140;255;1358;-39
2022/05/29 11:11:43;;;;;;;;;;;21.20;53.40;;;;;;467589;255;1213;-39
2022/05/29 11:13:44;;;;;;;;;;;21.30;53.50;;;;;;465801;255;1252;-39
2022/05/29 11:15:46;;;;;;;;;;;21.20;53.50;;;;;;468059;254;1229;-39
2022/05/29 11:17:47;;;;;;;;;;;21.20;53.50;;;;;;466083;255;2139;-39
2022/05/29 11:19:49;;;;;;;;;;;21.30;53.40;;;;;;467940;254;1277;-39
2022/05/29 11:21:51;;;;;;;;;;;21.30;53.40;;;;;;465685;255;2273;-39
2022/05/29 11:23:51;;;;;;;;;;;21.30;53.30;;;;;;467995;254;2170;-39
2022/05/29 11:25:52;;;;;;;;;;;21.30;53.40;;;;;;465785;255;1538;-39
2022/05/29 11:27:54;;;;;;;;;;;21.30;53.40;;;;;;467906;254;1285;-39
2022/05/29 11:29:55;;;;;;;;;;;21.20;53.30;;;;;;466247;255;1234;-39
2022/05/29 11:31:56;;;;;;;;;;;21.20;53.30;;;;;;467947;254;1221;-39
2022/05/29 11:33:57;;;;;;;;;;;21.30;53.40;;;;;;466261;255;1211;-39
2022/05/29 11:35:59;;;;;;;;;;;21.30;53.50;;;;;;467656;254;1296;-39
2022/05/29 11:38:00;;;;;;;;;;;21.20;53.50;;;;;;465862;255;2134;-39
2022/05/29 11:40:01;;;;;;;;;;;21.20;53.40;;;;;;467900;254;1221;-39
2022/05/29 11:42:04;;;;;;;;;;;21.20;53.40;;;;;;466096;255;1244;-39
2022/05/29 11:44:04;;;;;;;;;;;21.20;53.50;;;;;;467725;255;2211;-39
2022/05/29 11:53:03;;;;;;;;;;;21.30;53.50;;;;;;467983;254;1322;-39
2022/05/29 11:55:04;;;;;;;;;;;21.20;53.40;;;;;;466063;255;1190;-39
2022/05/29 11:57:05;;;;;;;;;;;21.20;53.40;;;;;;467959;254;2149;-39
2022/05/29 11:59:07;;;;;;;;;;;21.20;53.30;;;;;;466078;255;1240;-39
2022/05/29 12:01:08;;;;;;;;;;;21.20;53.40;;;;;;467593;255;1175;-39
2022/05/29 12:03:09;;;;;;;;;;;21.20;53.40;;;;;;465714;255;1167;-39
2022/05/29 12:05:11;;;;;;;;;;;21.20;53.50;;;;;;467663;255;1304;-39
2022/05/29 12:07:12;;;;;;;;;;;21.20;53.40;;;;;;465919;255;1715;-39
2022/05/29 12:09:13;;;;;;;;;;;21.20;53.60;;;;;;467647;255;1124;-39
2022/05/29 12:11:14;;;;;;;;;;;21.20;53.50;;;;;;465718;255;1237;-39
2022/05/29 12:13:16;;;;;;;;;;;21.20;53.40;;;;;;467840;254;1127;-39
2022/05/29 12:15:17;;;;;;;;;;;21.30;53.40;;;;;;465853;255;1253;-39
2022/05/29 12:17:18;;;;;;;;;;;21.30;53.40;;;;;;467719;254;2192;-39
2022/05/29 12:19:20;;;;;;;;;;;21.20;53.40;;;;;;465996;255;1136;-39
2022/05/29 12:21:21;;;;;;;;;;;21.30;53.40;;;;;;468019;254;1338;-39
2022/05/29 12:23:22;;;;;;;;;;;21.30;53.40;;;;;;465840;255;1097;-39
2022/05/29 12:25:24;;;;;;;;;;;21.20;53.40;;;;;;468085;254;1130;-39
2022/05/29 12:27:25;;;;;;;;;;;21.30;53.40;;;;;;466152;255;1215;-39
2022/05/29 12:29:26;;;;;;;;;;;21.30;53.20;;;;;;467755;254;1309;-39
2022/05/29 12:31:28;;;;;;;;;;;21.30;53.20;;;;;;466134;255;1563;-39